Time;durP1;ratioP1;P1;durP2;ratioP2;P2;SDS_P1;SDS_P2;PMS_P1;PMS_P2;Temp;Humidity;BMP_temperature;BMP_pressure;BME280_temperature;BME280_humidity;BME280_pressure;Samples;Min_cycle;Max_cycle;Signal;HPM_P1;HPM_P2
2023/09/07 00:01:07;;;;;;;6.67;5.60;;;19.70;1.00;;;;;;5002756;28;20189;-73
2023/09/07 00:03:32;;;;;;;6.10;5.20;;;19.70;1.00;;;;;;5047753;28;20717;-74
2023/09/07 00:05:58;;;;;;;7.13;5.00;;;19.70;1.00;;;;;;5032550;28;20443;-73
2023/09/07 00:08:25;;;;;;;7.70;5.37;;;19.60;1.00;;;;;;5064706;28;20302;-73
2023/09/07 00:10:51;;;;;;;7.50;5.50;;;19.60;1.00;;;;;;5063792;28;20952;-73
2023/09/07 00:13:17;;;;;;;7.60;4.90;;;19.60;1.00;;;;;;5048941;28;20645;-74
2023/09/07 00:15:43;;;;;;;10.53;5.80;;;19.60;1.00;;;;;;5064309;28;20802;-73
2023/09/07 00:18:09;;;;;;;8.33;5.37;;;19.60;1.00;;;;;;5048501;28;20215;-74
2023/09/07 00:20:35;;;;;;;7.97;5.40;;;19.60;1.00;;;;;;5049051;28;20219;-74
2023/09/07 00:28:58;;;;;;;7.93;5.47;;;19.50;1.00;;;;;;4983732;28;20460;-71
2023/09/07 00:31:24;;;;;;;6.50;5.17;;;19.50;1.00;;;;;;4986198;28;20500;-73
2023/09/07 00:33:50;;;;;;;6.97;5.30;;;19.40;1.00;;;;;;4986357;28;20449;-74
2023/09/07 00:36:15;;;;;;;9.63;5.53;;;19.40;1.00;;;;;;4988794;28;20189;-75
2023/09/07 00:38:41;;;;;;;6.30;5.00;;;19.40;1.00;;;;;;4986029;28;20191;-73
2023/09/07 00:41:06;;;;;;;6.23;5.07;;;19.40;1.00;;;;;;4984478;28;20640;-73
2023/09/07 00:43:32;;;;;;;6.50;4.80;;;19.30;1.00;;;;;;4989061;28;20210;-73
2023/09/07 00:45:57;;;;;;;11.33;5.13;;;19.40;1.00;;;;;;4986719;28;20198;-73
2023/09/07 00:48:23;;;;;;;7.43;5.03;;;19.40;1.00;;;;;;4989264;28;20194;-74
2023/09/07 00:50:49;;;;;;;11.10;5.40;;;19.40;1.00;;;;;;4986266;28;20219;-72
2023/09/07 00:53:15;;;;;;;9.20;5.40;;;19.40;1.00;;;;;;4983166;28;20197;-74
2023/09/07 00:55:41;;;;;;;7.80;5.43;;;19.40;1.00;;;;;;4983774;28;20433;-72
2023/09/07 00:58:07;;;;;;;6.73;5.33;;;19.40;1.00;;;;;;4986711;28;20187;-72
2023/09/07 01:00:33;;;;;;;7.33;5.43;;;19.30;1.00;;;;;;4986579;28;20179;-76
2023/09/07 01:03:00;;;;;;;6.60;5.17;;;19.40;1.00;;;;;;4987021;28;20186;-74
2023/09/07 01:05:34;;;;;;;9.50;5.27;;;19.40;1.00;;;;;;4987754;28;20970;-76
2023/09/07 01:08:09;;;;;;;11.50;5.40;;;19.30;1.00;;;;;;4987736;28;20452;-76
2023/09/07 01:10:35;;;;;;;10.63;5.77;;;19.30;1.00;;;;;;4983430;28;20466;-73
2023/09/07 01:13:02;;;;;;;13.80;5.30;;;19.30;1.00;;;;;;4986580;28;20472;-73
2023/09/07 01:15:27;;;;;;;7.13;5.23;;;19.30;1.00;;;;;;4988232;28;20541;-74
2023/09/07 01:17:54;;;;;;;6.43;5.13;;;19.30;1.00;;;;;;4987218;28;20619;-76
2023/09/07 01:20:21;;;;;;;6.80;5.30;;;19.30;1.00;;;;;;4986985;28;20660;-74
2023/09/07 01:22:47;;;;;;;8.90;5.53;;;19.30;1.00;;;;;;4986716;28;20628;-71
2023/09/07 01:25:13;;;;;;;18.93;5.40;;;19.30;1.00;;;;;;4987690;28;20469;-72
2023/09/07 01:27:39;;;;;;;7.80;5.37;;;19.70;1.00;;;;;;4987553;28;20525;-75
2023/09/07 01:30:05;;;;;;;8.43;5.90;;;19.30;1.00;;;;;;4969342;28;20195;-72
2023/09/07 01:32:31;;;;;;;6.50;5.60;;;19.30;1.00;;;;;;4986938;28;20452;-73
2023/09/07 01:34:57;;;;;;;7.60;5.87;;;21.90;1.00;;;;;;4987256;28;20918;-73
2023/09/07 01:37:23;;;;;;;8.33;5.97;;;19.30;1.00;;;;;;4988062;28;20187;-73
2023/09/07 01:39:49;;;;;;;6.90;5.43;;;19.30;1.00;;;;;;4986886;28;20446;-76
2023/09/07 01:42:15;;;;;;;7.00;5.60;;;19.20;1.00;;;;;;4985980;28;20182;-73
2023/09/07 01:44:40;;;;;;;8.70;5.83;;;19.20;1.00;;;;;;4984865;28;20465;-74
2023/09/07 01:47:06;;;;;;;6.60;5.10;;;19.20;1.00;;;;;;4985218;28;20660;-77
2023/09/07 01:49:32;;;;;;;8.17;5.70;;;19.20;1.00;;;;;;4986568;28;20209;-72
2023/09/07 01:51:57;;;;;;;8.90;5.27;;;19.20;1.00;;;;;;4987452;28;20517;-72
2023/09/07 01:54:23;;;;;;;6.80;5.10;;;19.10;1.00;;;;;;4983709;28;20349;-75
2023/09/07 01:56:48;;;;;;;6.30;4.80;;;19.10;1.00;;;;;;4987022;28;20487;-73
2023/09/07 01:59:14;;;;;;;7.83;5.20;;;19.10;1.00;;;;;;4984029;28;20179;-73
2023/09/07 02:01:40;;;;;;;10.97;5.50;;;19.10;1.00;;;;;;4987520;28;20263;-73
2023/09/07 02:04:06;;;;;;;7.37;5.53;;;19.10;1.00;;;;;;4986981;28;20290;-73
2023/09/07 02:06:31;;;;;;;8.80;5.10;;;19.10;1.00;;;;;;4985571;28;20541;-74
2023/09/07 02:08:57;;;;;;;7.73;5.83;;;19.20;1.00;;;;;;4987750;28;20187;-73
2023/09/07 02:11:22;;;;;;;11.33;5.00;;;19.30;1.00;;;;;;4986425;28;20312;-73
2023/09/07 02:13:48;;;;;;;6.67;5.17;;;19.40;1.00;;;;;;4986362;28;20209;-72
2023/09/07 02:16:14;;;;;;;6.13;5.13;;;19.60;1.00;;;;;;4987219;28;20533;-73
2023/09/07 02:18:43;;;;;;;8.70;5.73;;;19.80;1.00;;;;;;4986586;28;20190;-76
2023/09/07 02:21:09;;;;;;;8.80;4.80;;;20.00;1.00;;;;;;4987429;28;20183;-74
2023/09/07 02:23:37;;;;;;;7.43;4.80;;;20.10;1.00;;;;;;4987103;28;20481;-74
2023/09/07 02:26:02;;;;;;;5.80;4.80;;;20.20;1.00;;;;;;4980532;28;21123;-74
2023/09/07 02:28:28;;;;;;;7.37;5.20;;;20.50;1.00;;;;;;4985407;28;20445;-75
2023/09/07 02:30:54;;;;;;;6.57;4.80;;;20.60;1.00;;;;;;4986158;28;20246;-74
2023/09/07 02:33:19;;;;;;;7.03;5.13;;;20.60;1.00;;;;;;4986800;28;20189;-73
2023/09/07 02:35:47;;;;;;;7.37;5.20;;;20.60;1.00;;;;;;4985961;28;20229;-74
2023/09/07 02:38:13;;;;;;;10.77;5.50;;;20.70;1.00;;;;;;4980038;28;20175;-74
2023/09/07 02:40:45;;;;;;;6.47;5.23;;;20.70;1.00;;;;;;4986815;28;20445;-75
2023/09/07 02:43:11;;;;;;;9.13;4.90;;;20.70;1.00;;;;;;4968361;28;20786;-76
2023/09/07 02:45:37;;;;;;;10.90;5.60;;;20.70;1.00;;;;;;4984973;28;20450;-76
2023/09/07 02:48:03;;;;;;;6.33;4.80;;;20.80;1.00;;;;;;4968785;28;21234;-75
2023/09/07 02:50:32;;;;;;;6.20;4.90;;;20.90;1.00;;;;;;4987363;28;20761;-76
2023/09/07 02:52:57;;;;;;;5.73;4.83;;;20.90;1.00;;;;;;4986504;28;20511;-73
2023/09/07 02:55:23;;;;;;;10.43;5.60;;;21.60;1.00;;;;;;4979554;28;20526;-73
2023/09/07 02:57:48;;;;;;;6.93;5.30;;;20.90;1.00;;;;;;4979275;28;20191;-74
2023/09/07 03:00:17;;;;;;;7.77;5.33;;;20.90;1.00;;;;;;4986300;28;20193;-73
2023/09/07 03:02:43;;;;;;;9.00;5.20;;;20.90;1.00;;;;;;4989437;28;20194;-73
2023/09/07 03:05:09;;;;;;;5.70;4.30;;;20.90;1.00;;;;;;4988020;28;20535;-74
2023/09/07 03:07:34;;;;;;;6.63;5.00;;;20.90;1.00;;;;;;4973097;28;20274;-75
2023/09/07 03:10:00;;;;;;;6.87;5.10;;;20.90;1.00;;;;;;4988938;28;20213;-73
2023/09/07 03:12:26;;;;;;;6.60;4.80;;;21.00;1.00;;;;;;4971031;28;20569;-73
2023/09/07 03:14:52;;;;;;;7.40;4.93;;;20.90;1.00;;;;;;4989200;28;20215;-71
2023/09/07 03:17:20;;;;;;;6.90;5.50;;;20.90;1.00;;;;;;4988159;28;20533;-75
2023/09/07 03:19:46;;;;;;;6.90;5.20;;;20.90;1.00;;;;;;4990117;28;20788;-73
2023/09/07 03:22:12;;;;;;;8.17;5.60;;;20.90;1.00;;;;;;4972367;28;20818;-76
2023/09/07 03:24:37;;;;;;;6.70;5.40;;;20.90;1.00;;;;;;4988385;28;20217;-73
2023/09/07 03:27:03;;;;;;;6.47;4.93;;;23.90;1.00;;;;;;4988947;28;20194;-73
2023/09/07 03:29:30;;;;;;;7.73;4.90;;;20.90;1.00;;;;;;4970208;28;20190;-76
2023/09/07 03:31:55;;;;;;;6.63;4.73;;;20.80;1.00;;;;;;4988628;28;20199;-73
2023/09/07 03:34:21;;;;;;;6.33;4.93;;;20.80;1.00;;;;;;4971989;28;20472;-76
2023/09/07 03:36:46;;;;;;;9.13;5.80;;;20.80;1.00;;;;;;4989037;28;20195;-74
2023/09/07 03:39:12;;;;;;;9.10;5.47;;;20.80;1.00;;;;;;4989941;28;20198;-73
2023/09/07 03:41:37;;;;;;;7.63;5.30;;;20.70;1.00;;;;;;4988515;28;20187;-74
2023/09/07 03:44:03;;;;;;;6.97;5.40;;;20.80;1.00;;;;;;4989633;28;20233;-73
2023/09/07 03:46:29;;;;;;;7.90;5.10;;;20.70;1.00;;;;;;4988696;28;20190;-73
2023/09/07 03:48:54;;;;;;;8.60;5.27;;;20.70;1.00;;;;;;4986693;28;20540;-75
2023/09/07 03:51:20;;;;;;;6.97;4.97;;;20.70;1.00;;;;;;4988742;28;20218;-74
2023/09/07 03:53:45;;;;;;;7.07;5.03;;;20.70;1.00;;;;;;4989432;28;20213;-73
2023/09/07 03:56:11;;;;;;;6.70;5.60;;;20.70;1.00;;;;;;4971529;28;20621;-74
2023/09/07 03:58:36;;;;;;;6.60;5.47;;;20.70;1.00;;;;;;4985839;28;20191;-73
2023/09/07 04:01:02;;;;;;;7.03;5.63;;;20.70;1.00;;;;;;4986892;28;20190;-74
2023/09/07 04:03:28;;;;;;;6.13;5.13;;;20.60;1.00;;;;;;4988856;28;20257;-73
2023/09/07 04:05:53;;;;;;;7.10;5.30;;;20.90;1.00;;;;;;4988678;28;20206;-74
2023/09/07 04:08:19;;;;;;;7.77;5.87;;;20.80;1.00;;;;;;4988719;28;20213;-74
2023/09/07 04:10:44;;;;;;;9.13;5.70;;;20.60;1.00;;;;;;4971708;28;20215;-72
2023/09/07 04:13:10;;;;;;;8.37;5.70;;;20.60;1.00;;;;;;4987551;28;20643;-73
2023/09/07 04:15:42;;;;;;;5.90;5.30;;;20.60;1.00;;;;;;4989267;28;20182;-73
2023/09/07 04:18:08;;;;;;;8.57;5.60;;;20.60;1.00;;;;;;4988417;28;20241;-73
2023/09/07 04:20:34;;;;;;;6.70;5.50;;;20.50;1.00;;;;;;4988490;28;20453;-73
2023/09/07 04:22:59;;;;;;;7.43;5.90;;;20.50;1.00;;;;;;4988203;28;20183;-74
2023/09/07 04:25:25;;;;;;;12.70;5.53;;;20.50;1.00;;;;;;4986357;28;20233;-74
2023/09/07 04:27:51;;;;;;;7.10;5.53;;;20.50;1.00;;;;;;4986378;28;20193;-74
2023/09/07 04:30:17;;;;;;;7.40;5.50;;;22.30;1.00;;;;;;4986907;28;20903;-75
2023/09/07 04:32:43;;;;;;;8.60;5.50;;;20.50;1.00;;;;;;4970992;28;20183;-73
2023/09/07 04:35:08;;;;;;;7.47;5.60;;;20.50;1.00;;;;;;4988676;28;20206;-75
2023/09/07 04:37:34;;;;;;;6.70;5.30;;;20.40;1.00;;;;;;4985398;28;20309;-75
2023/09/07 04:39:59;;;;;;;13.07;5.60;;;20.40;1.00;;;;;;4986730;28;20256;-73
2023/09/07 04:42:25;;;;;;;8.17;5.37;;;20.40;1.00;;;;;;4984616;28;20738;-73
2023/09/07 04:44:50;;;;;;;6.80;5.60;;;20.40;1.00;;;;;;4987648;28;20281;-72
2023/09/07 04:47:16;;;;;;;8.60;5.50;;;20.40;1.00;;;;;;4986880;28;20182;-74
2023/09/07 04:49:41;;;;;;;6.53;5.27;;;20.40;1.00;;;;;;4987722;28;20186;-73
2023/09/07 04:52:08;;;;;;;7.57;5.80;;;20.40;1.00;;;;;;4987719;28;20256;-74
2023/09/07 04:54:34;;;;;;;10.47;5.53;;;20.40;1.00;;;;;;4987999;28;20199;-73
2023/09/07 04:56:59;;;;;;;6.97;5.87;;;20.40;1.00;;;;;;4985549;28;20838;-75
2023/09/07 04:59:25;;;;;;;6.57;5.60;;;20.40;1.00;;;;;;4982061;28;20178;-75
2023/09/07 05:01:50;;;;;;;7.07;5.70;;;20.40;1.00;;;;;;4970511;28;20205;-75
2023/09/07 05:04:16;;;;;;;9.73;6.17;;;20.40;1.00;;;;;;4987722;28;20684;-73
2023/09/07 05:06:43;;;;;;;7.10;5.60;;;20.30;1.00;;;;;;4970708;28;20241;-76
2023/09/07 05:09:08;;;;;;;7.10;5.67;;;20.30;1.00;;;;;;4986218;28;20284;-75
2023/09/07 05:11:35;;;;;;;7.37;5.37;;;20.30;1.00;;;;;;4968500;28;20930;-72
2023/09/07 05:14:01;;;;;;;8.80;6.17;;;20.40;1.00;;;;;;4987308;28;20194;-72
2023/09/07 05:16:27;;;;;;;8.10;6.00;;;20.40;1.00;;;;;;4986034;28;20430;-72
2023/09/07 05:18:53;;;;;;;8.50;6.50;;;20.40;1.00;;;;;;4986746;28;20850;-72
2023/09/07 05:21:18;;;;;;;7.63;5.90;;;20.40;1.00;;;;;;4986396;28;20191;-72
2023/09/07 05:23:44;;;;;;;8.93;5.70;;;20.40;1.00;;;;;;4970890;28;20198;-74
2023/09/07 05:26:09;;;;;;;9.20;6.37;;;20.50;1.00;;;;;;4985826;28;20640;-72
2023/09/07 05:28:35;;;;;;;9.07;6.00;;;20.50;1.00;;;;;;4985589;28;20276;-73
2023/09/07 05:31:00;;;;;;;8.30;5.80;;;20.50;1.00;;;;;;4986478;28;20301;-73
2023/09/07 05:33:26;;;;;;;9.27;6.43;;;20.50;1.00;;;;;;4982448;28;20537;-73
2023/09/07 05:35:52;;;;;;;6.70;5.93;;;20.50;1.00;;;;;;4985945;28;20584;-73
2023/09/07 05:38:17;;;;;;;7.50;6.07;;;20.50;1.00;;;;;;4968693;28;20617;-73
2023/09/07 05:40:44;;;;;;;12.23;6.40;;;20.50;1.00;;;;;;4989243;28;20338;-74
2023/09/07 05:43:10;;;;;;;9.88;6.35;;;20.60;1.00;;;;;;4988179;28;20426;-73
2023/09/07 05:45:40;;;;;;;7.63;5.77;;;20.60;1.00;;;;;;4970615;28;20179;-74
2023/09/07 05:48:07;;;;;;;8.77;5.77;;;20.60;1.00;;;;;;4986153;28;20438;-72
2023/09/07 05:50:37;;;;;;;7.47;5.67;;;20.90;1.00;;;;;;4987587;28;20883;-72
2023/09/07 05:53:03;;;;;;;8.07;6.40;;;21.20;1.00;;;;;;4986464;28;20453;-72
2023/09/07 05:55:29;;;;;;;9.30;5.73;;;21.40;1.00;;;;;;4985035;28;20458;-75
2023/09/07 05:57:55;;;;;;;10.83;6.10;;;21.40;1.00;;;;;;4958371;28;20484;-75
2023/09/07 06:00:21;;;;;;;8.67;6.30;;;21.50;1.00;;;;;;4983515;28;20736;-72
2023/09/07 06:02:47;;;;;;;10.07;5.77;;;21.60;1.00;;;;;;4989601;28;20434;-71
2023/09/07 06:05:13;;;;;;;8.60;5.70;;;21.70;1.00;;;;;;4971306;28;20206;-74
2023/09/07 06:07:38;;;;;;;8.37;6.53;;;21.90;1.00;;;;;;4989457;28;20190;-74
2023/09/07 06:10:05;;;;;;;7.60;5.83;;;22.00;1.00;;;;;;4988658;28;20946;-75
2023/09/07 06:12:31;;;;;;;8.43;6.00;;;22.10;1.00;;;;;;4989215;28;20179;-75
2023/09/07 06:14:57;;;;;;;6.10;5.30;;;22.20;1.00;;;;;;4988545;28;20452;-74
2023/09/07 06:17:22;;;;;;;7.83;6.50;;;22.30;1.00;;;;;;4989328;28;20422;-76
2023/09/07 06:19:48;;;;;;;8.00;5.67;;;22.40;1.00;;;;;;4989466;28;20237;-73
2023/09/07 06:22:13;;;;;;;7.40;6.33;;;22.50;1.00;;;;;;4989061;28;20624;-73
2023/09/07 06:24:39;;;;;;;9.33;5.70;;;22.70;1.00;;;;;;4988825;28;20214;-73
2023/09/07 06:27:04;;;;;;;8.80;5.80;;;22.80;1.00;;;;;;4979420;28;20271;-71
2023/09/07 06:29:30;;;;;;;8.70;6.20;;;22.80;1.00;;;;;;4980867;28;20212;-71
2023/09/07 06:31:55;;;;;;;7.17;5.67;;;23.10;1.00;;;;;;4986643;28;20237;-72
2023/09/07 06:34:21;;;;;;;7.67;5.90;;;23.30;1.00;;;;;;4992685;28;20225;-77
2023/09/07 06:36:46;;;;;;;8.47;5.97;;;23.70;1.00;;;;;;4993051;28;20199;-75
2023/09/07 06:39:12;;;;;;;7.57;6.30;;;24.30;1.00;;;;;;4992708;28;20194;-73
2023/09/07 06:41:37;;;;;;;8.40;5.63;;;24.80;1.00;;;;;;4992704;28;20195;-74
2023/09/07 06:44:03;;;;;;;6.73;5.77;;;26.10;1.00;;;;;;4991750;28;20242;-73
2023/09/07 06:46:29;;;;;;;11.53;6.00;;;26.00;1.00;;;;;;4992775;28;20214;-73
2023/09/07 06:48:54;;;;;;;6.27;5.67;;;26.30;1.00;;;;;;4992717;28;20182;-73
2023/09/07 06:51:20;;;;;;;6.23;5.30;;;26.60;1.00;;;;;;4992112;28;20231;-76
2023/09/07 06:53:45;;;;;;;11.23;6.20;;;26.70;1.00;;;;;;4992680;28;20637;-75
2023/09/07 06:56:11;;;;;;;8.20;5.73;;;26.20;1.00;;;;;;4990056;28;20249;-75
2023/09/07 06:58:37;;;;;;;7.90;6.20;;;25.60;1.00;;;;;;4965627;28;20225;-74
2023/09/07 07:01:04;;;;;;;8.33;5.47;;;25.20;1.00;;;;;;4971851;28;20683;-74
2023/09/07 07:03:30;;;;;;;8.93;5.83;;;25.50;1.00;;;;;;4991881;28;20406;-75
2023/09/07 07:05:56;;;;;;;7.40;6.00;;;25.60;1.00;;;;;;4992180;28;20186;-74
2023/09/07 07:08:22;;;;;;;6.90;5.70;;;26.00;1.00;;;;;;4991941;28;20194;-73
2023/09/07 07:10:48;;;;;;;7.57;6.17;;;26.10;1.00;;;;;;4991220;28;20579;-73
2023/09/07 07:13:14;;;;;;;8.00;5.70;;;25.20;1.00;;;;;;4991455;28;20499;-73
2023/09/07 07:15:39;;;;;;;8.93;5.53;;;25.20;1.00;;;;;;4992083;28;20190;-74
2023/09/07 07:18:08;;;;;;;7.30;5.93;;;25.10;1.00;;;;;;4991875;28;20174;-73
2023/09/07 07:20:35;;;;;;;8.93;6.60;;;25.00;1.00;;;;;;4991978;28;20263;-74
2023/09/07 07:23:00;;;;;;;7.07;5.93;;;25.30;1.00;;;;;;4991615;28;20274;-71
2023/09/07 07:25:26;;;;;;;7.73;5.50;;;26.20;1.00;;;;;;4984121;28;20907;-74
2023/09/07 07:27:51;;;;;;;7.80;5.60;;;27.10;1.00;;;;;;4974264;28;20566;-75
2023/09/07 07:30:17;;;;;;;6.93;5.28;;;28.20;1.00;;;;;;4986619;28;20214;-74
2023/09/07 07:32:42;;;;;;;7.22;4.80;;;29.20;1.00;;;;;;4974386;28;20191;-74
2023/09/07 07:35:08;;;;;;;6.63;4.57;;;30.20;1.00;;;;;;4973712;28;20285;-77
2023/09/07 07:37:33;;;;;;;6.15;5.18;;;30.70;1.00;;;;;;4991888;28;20182;-74
2023/09/07 07:39:59;;;;;;;6.28;5.20;;;31.50;1.00;;;;;;4991658;28;20183;-79
2023/09/07 07:42:24;;;;;;;7.20;5.00;;;31.80;1.00;;;;;;4983103;28;20215;-75
2023/09/07 07:44:50;;;;;;;9.77;5.10;;;32.40;1.00;;;;;;4990574;28;20733;-74
2023/09/07 07:47:16;;;;;;;5.97;5.00;;;32.80;1.00;;;;;;4991267;28;20179;-75
2023/09/07 07:49:41;;;;;;;6.75;5.47;;;32.90;1.00;;;;;;4974040;28;20229;-75
2023/09/07 07:52:07;;;;;;;6.53;4.80;;;32.90;1.00;;;;;;4991251;28;20223;-75
2023/09/07 07:54:34;;;;;;;6.72;4.90;;;33.00;1.00;;;;;;4991035;28;20277;-74
2023/09/07 07:56:59;;;;;;;6.28;5.10;;;33.30;1.00;;;;;;4991298;28;20646;-75
2023/09/07 07:59:25;;;;;;;12.18;5.20;;;33.80;1.00;;;;;;4977338;28;20289;-77
2023/09/07 08:01:50;;;;;;;6.78;4.65;;;33.80;1.00;;;;;;4991464;28;20182;-74
2023/09/07 08:04:16;;;;;;;6.55;5.57;;;33.40;1.00;;;;;;4990672;28;20229;-74
2023/09/07 08:06:41;;;;;;;6.72;4.90;;;33.30;1.00;;;;;;4991309;28;20195;-78
2023/09/07 08:09:08;;;;;;;10.10;5.40;;;33.10;1.00;;;;;;4991011;28;20202;-73
2023/09/07 08:11:33;;;;;;;7.95;5.70;;;33.10;1.00;;;;;;4991031;28;20203;-74
2023/09/07 08:13:59;;;;;;;7.82;5.15;;;34.20;1.00;;;;;;4990832;28;20325;-74
2023/09/07 08:16:24;;;;;;;8.13;5.25;;;34.20;1.00;;;;;;4990761;28;20244;-76
2023/09/07 08:18:50;;;;;;;7.60;5.07;;;34.30;1.00;;;;;;4991465;28;20244;-77
2023/09/07 08:21:16;;;;;;;5.32;4.50;;;34.50;1.00;;;;;;4990600;28;20237;-74
2023/09/07 08:23:41;;;;;;;6.22;5.05;;;35.40;1.00;;;;;;4990778;28;20213;-74
2023/09/07 08:26:09;;;;;;;5.88;4.70;;;35.50;1.00;;;;;;4989159;28;20269;-75
2023/09/07 08:28:34;;;;;;;5.60;4.88;;;35.70;1.00;;;;;;4966209;28;20338;-77
2023/09/07 08:31:00;;;;;;;7.45;5.35;;;36.00;1.00;;;;;;4985011;28;20210;-75
2023/09/07 08:33:29;;;;;;;7.85;4.63;;;37.00;1.00;;;;;;4990052;28;20186;-75
2023/09/07 08:35:56;;;;;;;5.68;4.70;;;37.10;1.00;;;;;;4972508;28;20178;-75
2023/09/07 08:38:27;;;;;;;6.70;4.57;;;37.60;1.00;;;;;;4990272;28;20217;-75
2023/09/07 08:41:01;;;;;;;6.05;4.70;;;37.10;1.00;;;;;;4990244;28;20186;-76
2023/09/07 08:43:29;;;;;;;7.05;4.40;;;37.10;1.00;;;;;;4989882;28;20245;-75
2023/09/07 08:46:09;;;;;;;6.03;4.40;;;37.10;1.00;;;;;;4990231;28;20187;-75
2023/09/07 08:48:36;;;;;;;6.45;4.40;;;37.10;1.00;;;;;;4990438;28;20232;-76
2023/09/07 08:51:02;;;;;;;6.05;4.35;;;37.50;1.00;;;;;;4990033;28;20198;-77
2023/09/07 08:53:31;;;;;;;5.75;4.80;;;37.50;1.00;;;;;;4982134;28;20482;-74
2023/09/07 08:55:56;;;;;;;7.32;4.93;;;37.60;1.00;;;;;;4981577;28;20608;-75
2023/09/07 08:58:22;;;;;;;6.90;4.72;;;38.00;1.00;;;;;;4988495;28;20270;-76
2023/09/07 09:00:49;;;;;;;6.50;4.32;;;38.50;1.00;;;;;;4984555;28;20182;-75
2023/09/07 09:03:14;;;;;;;5.82;4.40;;;38.30;1.00;;;;;;4989411;28;20283;-75
2023/09/07 09:05:41;;;;;;;5.20;4.70;;;38.30;1.00;;;;;;4989667;28;20201;-73
2023/09/07 09:08:07;;;;;;;7.80;4.90;;;38.60;1.00;;;;;;4989739;28;20202;-76
2023/09/07 09:10:32;;;;;;;6.38;4.63;;;39.00;1.00;;;;;;4989520;28;20210;-74
2023/09/07 09:12:59;;;;;;;7.25;4.55;;;39.10;1.00;;;;;;4989553;28;20668;-73
2023/09/07 09:15:27;;;;;;;6.80;4.68;;;39.30;1.00;;;;;;4989172;28;20280;-75
2023/09/07 09:17:53;;;;;;;6.40;4.45;;;39.10;1.00;;;;;;4990309;28;20273;-75
2023/09/07 09:20:28;;;;;;;6.47;4.22;;;38.80;1.00;;;;;;4989254;28;20722;-75
2023/09/07 09:22:56;;;;;;;6.85;4.45;;;38.60;1.00;;;;;;4989729;28;20681;-75
2023/09/07 09:25:22;;;;;;;10.32;4.95;;;38.60;1.00;;;;;;4987003;28;20202;-77
2023/09/07 09:27:47;;;;;;;7.25;4.63;;;38.90;1.00;;;;;;4984136;28;20187;-76
2023/09/07 09:30:15;;;;;;;7.78;4.72;;;39.00;1.00;;;;;;4988902;28;20283;-75
2023/09/07 09:32:44;;;;;;;11.55;4.57;;;39.10;1.00;;;;;;4990150;28;20174;-76
2023/09/07 09:35:10;;;;;;;5.80;4.43;;;40.10;1.00;;;;;;4988852;28;20209;-75
2023/09/07 09:37:46;;;;;;;5.47;4.97;;;40.40;1.00;;;;;;4989635;28;20205;-76
2023/09/07 09:40:16;;;;;;;5.15;4.60;;;40.40;1.00;;;;;;4989151;28;20825;-75
2023/09/07 09:42:43;;;;;;;6.07;4.38;;;40.60;1.00;;;;;;4989532;28;20186;-75
2023/09/07 09:45:10;;;;;;;8.55;4.20;;;41.00;1.00;;;;;;4988802;28;20198;-75
2023/09/07 09:47:40;;;;;;;6.35;4.32;;;41.00;1.00;;;;;;4971774;28;20210;-75
2023/09/07 09:50:07;;;;;;;9.65;4.40;;;41.60;1.00;;;;;;4971870;28;20171;-75
2023/09/07 09:52:36;;;;;;;7.28;4.55;;;41.80;1.00;;;;;;4989369;28;20202;-76
2023/09/07 09:55:05;;;;;;;7.47;4.55;;;42.20;1.00;;;;;;4989215;28;20190;-77
2023/09/07 09:57:31;;;;;;;4.60;4.00;;;42.00;1.00;;;;;;4989428;28;20202;-76
2023/09/07 09:59:59;;;;;;;10.85;4.10;;;42.30;1.00;;;;;;4982282;28;20175;-76
2023/09/07 10:02:26;;;;;;;5.72;4.03;;;42.00;1.00;;;;;;4988987;28;20692;-75
2023/09/07 10:04:52;;;;;;;5.32;4.22;;;42.30;1.00;;;;;;4988971;28;20222;-75
2023/09/07 10:07:19;;;;;;;4.70;4.03;;;42.10;1.00;;;;;;4991275;28;20186;-76
2023/09/07 10:09:44;;;;;;;5.13;4.30;;;42.10;1.00;;;;;;4993109;28;20274;-75
2023/09/07 10:12:13;;;;;;;5.00;4.00;;;42.40;1.00;;;;;;4992725;28;20686;-76
2023/09/07 10:14:40;;;;;;;5.32;4.28;;;42.70;1.00;;;;;;4992671;28;20210;-74
2023/09/07 10:17:06;;;;;;;6.43;4.47;;;43.20;1.00;;;;;;4993162;28;20187;-78
2023/09/07 10:19:31;;;;;;;6.45;4.25;;;42.60;1.00;;;;;;4992674;28;20177;-75
2023/09/07 10:21:57;;;;;;;5.30;3.95;;;42.80;1.00;;;;;;4992979;28;20179;-75
2023/09/07 10:24:35;;;;;;;4.65;4.15;;;43.50;1.00;;;;;;4992160;28;20277;-75
2023/09/07 10:27:06;;;;;;;7.30;4.38;;;44.20;1.00;;;;;;4975426;28;20687;-76
2023/09/07 10:29:52;;;;;;;7.38;3.90;;;44.60;1.00;;;;;;4991177;28;20190;-75
2023/09/07 10:32:18;;;;;;;5.15;3.90;;;44.20;1.00;;;;;;4990658;28;20206;-76
2023/09/07 10:34:43;;;;;;;5.97;3.97;;;43.90;1.00;;;;;;4992622;28;20202;-75
2023/09/07 10:37:13;;;;;;;6.63;4.38;;;44.00;1.00;;;;;;4989425;28;20214;-77
2023/09/07 10:39:40;;;;;;;6.93;3.97;;;44.30;1.00;;;;;;4975201;28;20183;-78
2023/09/07 10:42:05;;;;;;;6.65;4.18;;;44.00;1.00;;;;;;4992569;28;20656;-75
2023/09/07 10:44:31;;;;;;;5.15;4.35;;;43.20;1.00;;;;;;4992183;28;20214;-76
2023/09/07 10:46:57;;;;;;;4.50;3.80;;;43.10;1.00;;;;;;4992830;28;20549;-76
2023/09/07 10:49:24;;;;;;;5.05;4.03;;;42.90;1.00;;;;;;4992475;28;20703;-76
2023/09/07 10:51:50;;;;;;;4.45;4.05;;;42.90;1.00;;;;;;4993053;28;20198;-75
2023/09/07 10:54:17;;;;;;;6.45;4.20;;;43.20;1.00;;;;;;4991711;28;20190;-75
2023/09/07 10:56:45;;;;;;;4.50;4.00;;;43.30;1.00;;;;;;4988053;28;20175;-74
2023/09/07 10:59:11;;;;;;;5.43;3.70;;;44.10;1.00;;;;;;4981645;28;20175;-74
2023/09/07 11:01:37;;;;;;;6.03;4.10;;;44.20;1.00;;;;;;4975225;28;20552;-76
2023/09/07 11:04:03;;;;;;;5.85;4.00;;;43.00;1.00;;;;;;4992496;28;20198;-75
2023/09/07 11:06:29;;;;;;;7.95;4.30;;;42.60;1.00;;;;;;4974701;28;20534;-75
2023/09/07 11:08:54;;;;;;;5.00;3.60;;;42.50;1.00;;;;;;4992469;28;20226;-75
2023/09/07 11:11:22;;;;;;;6.45;3.90;;;43.50;1.00;;;;;;4991510;28;20273;-75
2023/09/07 11:13:48;;;;;;;4.80;3.88;;;42.80;1.00;;;;;;4992137;28;20202;-78
2023/09/07 11:16:13;;;;;;;7.43;4.25;;;42.80;1.00;;;;;;4991971;28;20265;-75
2023/09/07 11:18:40;;;;;;;4.95;4.20;;;43.10;1.00;;;;;;4991870;28;20277;-76
2023/09/07 11:21:07;;;;;;;8.27;4.55;;;43.30;1.00;;;;;;4991905;28;20178;-75
2023/09/07 11:23:38;;;;;;;4.90;3.78;;;44.80;1.00;;;;;;4991764;28;20224;-77
2023/09/07 11:26:07;;;;;;;8.38;4.22;;;44.90;1.00;;;;;;4983881;28;20189;-76
2023/09/07 11:28:33;;;;;;;7.40;4.20;;;45.00;1.00;;;;;;4983522;28;20680;-75
2023/09/07 11:31:00;;;;;;;4.25;3.78;;;45.10;1.00;;;;;;4984981;28;20289;-77
2023/09/07 11:33:27;;;;;;;5.95;4.13;;;44.20;1.00;;;;;;4991289;28;20278;-76
2023/09/07 11:35:55;;;;;;;6.47;4.20;;;44.10;1.00;;;;;;4991661;28;20269;-76
2023/09/07 11:38:22;;;;;;;7.55;4.22;;;43.40;1.00;;;;;;4991756;28;20179;-77
2023/09/07 11:40:47;;;;;;;4.60;4.00;;;43.50;1.00;;;;;;4991737;28;20182;-78
2023/09/07 11:43:20;;;;;;;8.50;4.40;;;45.00;1.00;;;;;;4991121;28;20562;-75
2023/09/07 11:45:46;;;;;;;5.38;4.22;;;43.10;1.00;;;;;;4991620;28;20194;-76
2023/09/07 11:48:12;;;;;;;6.00;3.90;;;44.60;1.00;;;;;;4991559;28;20571;-75
2023/09/07 11:50:39;;;;;;;5.35;3.88;;;44.40;1.00;;;;;;4965856;28;20202;-77
2023/09/07 11:53:06;;;;;;;7.15;4.07;;;43.70;1.00;;;;;;4973843;28;20182;-75
2023/09/07 11:55:33;;;;;;;8.13;4.57;;;43.60;1.00;;;;;;4990853;28;20573;-74
2023/09/07 11:57:58;;;;;;;5.88;4.25;;;43.60;1.00;;;;;;4991530;28;20179;-77
2023/09/07 12:00:24;;;;;;;10.00;4.10;;;43.70;1.00;;;;;;4973553;28;20190;-75
2023/09/07 12:02:50;;;;;;;6.72;4.10;;;44.20;1.00;;;;;;4991067;28;20189;-74
2023/09/07 12:05:15;;;;;;;5.95;4.28;;;45.20;1.00;;;;;;4973159;28;20206;-73
2023/09/07 12:07:45;;;;;;;8.38;3.95;;;46.10;1.00;;;;;;4991241;28;20186;-75
2023/09/07 12:10:13;;;;;;;6.03;3.90;;;46.80;1.00;;;;;;4991161;28;20269;-79
2023/09/07 12:12:42;;;;;;;10.10;4.18;;;47.40;1.00;;;;;;4990831;28;20293;-74
2023/09/07 12:15:08;;;;;;;4.90;4.10;;;47.60;1.00;;;;;;4990707;28;20501;-76
2023/09/07 12:17:34;;;;;;;5.10;3.90;;;47.70;1.00;;;;;;4990688;28;20202;-76
2023/09/07 12:20:00;;;;;;;5.55;3.72;;;47.50;1.00;;;;;;4991161;28;20191;-75
2023/09/07 12:22:27;;;;;;;4.45;3.80;;;46.90;1.00;;;;;;4990914;28;20197;-75
2023/09/07 12:24:52;;;;;;;6.22;3.90;;;46.60;1.00;;;;;;4967887;28;20211;-76
2023/09/07 12:27:18;;;;;;;12.88;4.03;;;46.90;1.00;;;;;;4987436;28;20408;-76
2023/09/07 12:29:44;;;;;;;6.40;4.00;;;47.90;1.00;;;;;;4969091;28;20191;-76
2023/09/07 12:32:10;;;;;;;5.13;3.97;;;48.20;1.00;;;;;;4986409;28;20703;-78
2023/09/07 12:34:35;;;;;;;5.55;3.60;;;48.20;1.00;;;;;;4989494;28;20293;-74
2023/09/07 12:37:03;;;;;;;7.25;3.85;;;48.10;1.00;;;;;;4990500;28;20185;-76
2023/09/07 12:39:29;;;;;;;4.53;3.75;;;47.60;1.00;;;;;;4972664;28;20348;-75
2023/09/07 12:41:54;;;;;;;4.93;3.70;;;47.10;1.00;;;;;;4990402;28;20675;-76
2023/09/07 12:44:20;;;;;;;9.20;4.00;;;47.60;1.00;;;;;;4989601;28;20212;-78
2023/09/07 12:46:46;;;;;;;6.25;3.97;;;47.60;1.00;;;;;;4990233;28;20566;-75
2023/09/07 12:49:12;;;;;;;5.80;3.63;;;47.40;1.00;;;;;;4990341;28;20198;-76
2023/09/07 12:51:37;;;;;;;7.68;3.90;;;46.60;1.00;;;;;;4990015;28;20206;-75
2023/09/07 12:54:03;;;;;;;4.70;3.88;;;45.90;1.00;;;;;;4989730;28;20198;-77
2023/09/07 12:56:28;;;;;;;4.22;3.83;;;46.00;1.00;;;;;;4989657;28;20186;-75